North Judson, Indiana
Current Conditions -  °F | °C
As of 9:15 PM on Friday 21 Nov 2014 (Local Time) from KOXI Reporting Station
Scattered Clouds Scattered Clouds  
Wind Chill: 17°   Ceiling: Unl
Heat Index: 27°   Visibility: 10mi
Dew Point: 13°   Wind: 10mph
Humidity: 57%   Direction: 170°S
Pressure: 30.3"   Gusts: NA
Location:  41.22°N, 86.78°W
Report Text: KOXI 220315Z AUTO 17009KT 10SM SCT039 M03/M10 A3030 RMK AO1 T10301104
Loading
Personal Weather Stations






























Interactive Weather Map New forecast layout! Learn more

10-Day Weather Forecast

Advertisements
Track Severe Weather on mobile